Date,TemperatureHighF,TemperatureAvgF,TemperatureLowF,DewpointHighF,DewpointAvgF,DewpointLowF,HumidityHigh,HumidityAvg,HumidityLow,PressureMaxIn,PressureMinIn,WindSpeedMaxMPH,WindSpeedAvgMPH,GustSpeedMaxMPH,PrecipitationSumIn
2014-1-1,34,30,24,22,18,12,69,61,55,32.44,30.95,13,1,13,0.00
2014-1-2,32,27,18,25,21,11,89,80,65,32.29,31.51,21,3,21,0.00
2014-1-3,21,14,8,16,9,3,83,79,74,32.07,30.89,24,2,24,0.00
2014-1-4,29,18,6,18,10,2,92,73,51,31.59,29.27,14,1,14,0.00
2014-1-5,44,28,16,28,19,11,82,68,51,32.22,30.71,10,0,10,0.15
2014-1-6,57,46,24,37,29,11,72,51,47,32.17,31.16,24,4,24,0.44
2014-1-7,24,11,7,11,-4,-8,57,49,42,31.16,17.91,30,5,30,0.00
2014-1-8,24,17,10,9,4,-2,64,56,47,27.62,24.72,12,1,15,0.00
2014-1-9,35,26,20,20,15,9,80,62,47,26.77,17.16,11,0,11,0.00
2014-1-10,37,32,23,26,24,18,81,70,55,27.95,17.16,4,0,4,0.12
2014-1-11,57,50,37,37,32,22,58,50,47,27.95,27.95,21,3,21,0.65
2014-1-12,54,45,38,46,34,31,88,65,50,27.95,17.38,22,3,22,0.03
2014-1-13,52,43,33,43,37,29,88,79,67,23.14,16.56,18,1,18,0.00
2014-1-14,48,46,43,42,34,29,92,65,55,26.23,16.56,10,0,10,0.49
2014-1-15,49,40,32,45,31,24,88,72,58,32.01,16.72,7,0,7,0.01
2014-1-16,42,39,34,36,30,24,84,72,56,22.66,16.70,8,0,8,0.00
2014-1-17,46,36,27,38,29,17,84,75,59,30.01,16.70,12,1,12,0.00
2014-1-18,40,36,30,36,28,24,83,72,58,32.41,28.97,20,1,20,0.20
2014-1-19,38,32,28,28,24,19,80,70,61,32.41,16.14,24,2,24,0.00
2014-1-20,46,40,33,33,29,19,75,64,56,26.16,26.16,16,2,24,0.00
2014-1-21,32,23,16,19,15,12,85,71,53,31.52,26.16,15,1,15,0.00
2014-1-22,19,14,8,5,2,-2,64,57,50,20.71,20.71,21,3,21,0.00